Aérodrome :
LOGIN :

S'inscrire | Disclaimer

   EN    FR    IT 

 










Légende :    VFR   VFR Marginal   IFR   IFR Intensif   IFR Très Intensif
Visi : 
Plafond : 
>= 8 km
>= 3000ft
5 à 8 km
1000 à 3000 ft
1500m à 5 km
500 à 1000 ft
800 à 1500m
200 à 500 ft
< 800m
< 200 ft
Symboles :   Orages  Brouillard  Fortes neiges  Fortes précipitations  Vent > 20 kt
SIGMETs :   Divers  Orages  Givrage  Turbulence  Onde Orograph.  Cendres Volcan.







- Altitude de l'aérodrome : 41 ft


LIRE - Pratica di Mare Air Base Pomezia

DERNIER METAR :
  • 221955Z 10011KT 6000 -RA SCT018 BKN020 09/08 Q0999 RMK OVC VIS MIN 6000 WIND THR13 13009KT WIND THR31 10014KT WHT

METARs EXPIRÉS :
  • 221855Z 12015KT 6000 SCT018 BKN020 09/09 Q0999 RMK OVC VIS MIN 6000 WIND THR13 14013KT WIND THR31 12014KT WHT
  • 221755Z 11017G27KT 6000 -RA SCT025 BKN030 10/07 Q0998 RMK OVC VIS MIN 6000 WIND THR13 12018G28KT WIND THR31 11018KT WHT

TAF TAF LIRE
Valide du 22 à 18h jusqu'au 23 à 03h UTC


221700Z 2218/2303 10015KT 7000 RA SCT025 BKN030
TEMPO 2218/2220 09015G25KT 4000 SHRA BR FEW020CB BKN030
Pas de NOTAMs connus pour ce terrain.
1 SIGMET publié pour la FIR Roma (LIRR) :
 
Orages noyés dans la masse
LIRR SIGMET 6 VALID 221800/222200 LIIB
LIRR ROMA FIR EMBD TS FCST WI N3858 E01456 - N3658 E01501 - N3659 E01820 - N3852 E01818 - N3858 E01456 TOP ABV FL200 MOV E NC=



MET'MAP, la Météo Aéronautique d'un coup d'oeil ! - Copyright ORBIFLY Décembre 2007 - Disclaimer

ORBIFLY MET'MAP TEAM :

Programmation & Développement : Alexandra Zaïnal
Conception & Développement : Baudouin d'Aumeries
Co-Programmation & Développement : Marc-Olivier Méhu
Soutien technique & logistique : Manuel Goepfert

Contact : metmap@orbifly.com




SOURCES & CREDITS :

   NOAA